createdAt,value
2023-04-13T00:03:24.194Z,81.75
2023-04-13T00:10:25.930Z,82.41
2023-04-13T00:17:27.487Z,82.24
2023-04-13T00:24:29.022Z,82.43
2023-04-13T00:31:30.762Z,82.24
2023-04-13T00:38:32.417Z,82.76
2023-04-13T00:45:37.766Z,82.85
2023-04-13T00:52:39.562Z,82.57
2023-04-13T00:59:41.128Z,82.88
2023-04-13T01:06:45.087Z,82.94
2023-04-13T01:14:23.184Z,82.05
2023-04-13T01:21:27.663Z,82.33
2023-04-13T01:28:29.906Z,82.89
2023-04-13T01:35:31.605Z,82.07
2023-04-13T01:42:33.633Z,83.28
2023-04-13T01:49:35.789Z,83.16
2023-04-13T01:57:02.058Z,83.15
2023-04-13T02:04:04.268Z,83.14
2023-04-13T02:11:07.833Z,81.76
2023-04-13T02:18:10.517Z,82.50
2023-04-13T02:25:12.607Z,82.01
2023-04-13T02:32:14.462Z,80.93
2023-04-13T02:39:16.060Z,80.22
2023-04-13T02:46:18.088Z,77.71
2023-04-13T02:53:20.968Z,76.39
2023-04-13T03:00:28.551Z,75.50
2023-04-13T03:07:34.476Z,74.95
2023-04-13T03:14:37.971Z,75.09
2023-04-13T03:21:45.656Z,75.13
2023-04-13T03:28:51.538Z,74.69
2023-04-13T03:35:53.971Z,74.54
2023-04-13T03:43:04.613Z,73.45
2023-04-13T03:50:10.442Z,73.57
2023-04-13T03:57:12.502Z,71.42
2023-04-13T04:04:14.888Z,71.12
2023-04-13T04:11:17.320Z,70.42
2023-04-13T04:18:18.926Z,70.09
2023-04-13T04:25:27.467Z,70.04
2023-04-13T04:32:29.595Z,70.36
2023-04-13T04:39:34.916Z,70.81
2023-04-13T04:46:45.471Z,70.52
2023-04-13T04:53:49.798Z,70.68
2023-04-13T05:00:53.141Z,71.40
2023-04-13T05:07:54.835Z,71.56
2023-04-13T05:14:57.057Z,71.96
2023-04-13T05:21:59.399Z,72.46
2023-04-13T05:29:01.392Z,72.25
2023-04-13T05:36:08.301Z,72.11
2023-04-13T05:43:12.166Z,72.70
2023-04-13T05:50:20.051Z,72.68
2023-04-13T05:57:21.806Z,72.96
2023-04-13T06:04:27.249Z,72.82
2023-04-13T06:11:29.536Z,73.45
2023-04-13T06:18:31.075Z,72.78
2023-04-13T06:25:32.732Z,73.20
2023-04-13T06:32:35.432Z,72.77
2023-04-13T06:39:38.629Z,72.65
2023-04-13T06:46:43.060Z,72.05
2023-04-13T06:53:47.429Z,72.75
2023-04-13T07:00:49.150Z,71.74
2023-04-13T07:07:51.670Z,70.07
2023-04-13T07:14:54.626Z,69.25
2023-04-13T07:21:59.874Z,68.49
2023-04-13T07:29:01.730Z,67.87
2023-04-13T07:36:08.706Z,67.03
2023-04-13T07:43:11.292Z,66.63
2023-04-13T07:50:16.550Z,66.26
2023-04-13T07:57:21.336Z,65.76
2023-04-13T08:04:29.433Z,63.46
2023-04-13T08:11:31.609Z,61.26
2023-04-13T08:18:39.806Z,60.92
2023-04-13T08:25:44.606Z,59.90
2023-04-13T08:32:46.636Z,58.85
2023-04-13T08:39:48.392Z,55.65
2023-04-13T08:46:53.336Z,55.05
2023-04-13T08:54:02.561Z,53.54
2023-04-13T09:01:13.487Z,54.69
2023-04-13T09:08:16.946Z,52.88
2023-04-13T09:15:21.149Z,51.54
2023-04-13T09:22:42.010Z,51.06
2023-04-13T09:29:53.640Z,49.80
2023-04-13T09:36:57.312Z,49.48
2023-04-13T09:44:01.233Z,47.55
2023-04-13T09:51:05.554Z,44.66
2023-04-13T09:58:14.722Z,45.29
2023-04-13T10:05:17.405Z,43.88
2023-04-13T10:12:18.995Z,41.30
2023-04-13T10:19:21.894Z,41.86
2023-04-13T10:26:32.480Z,40.85
2023-04-13T10:33:34.077Z,40.01
2023-04-13T10:40:45.551Z,41.85
2023-04-13T10:47:47.523Z,41.19
2023-04-13T10:54:49.237Z,38.72
2023-04-13T11:01:50.896Z,39.00
2023-04-13T11:08:59.784Z,38.94
2023-04-13T11:16:04.698Z,39.44
2023-04-13T11:23:07.784Z,36.96
2023-04-13T11:30:11.095Z,39.10
2023-04-13T11:37:12.709Z,39.92
2023-04-13T11:44:14.714Z,39.43
2023-04-13T11:51:16.420Z,39.53
2023-04-13T11:58:18.940Z,40.15
2023-04-13T12:05:32.481Z,38.68
2023-04-13T12:19:41.694Z,38.91
2023-04-13T12:33:51.388Z,38.68
2023-04-13T12:40:59.618Z,37.57
2023-04-13T12:48:02.277Z,38.02
2023-04-13T12:55:03.979Z,36.03
2023-04-13T13:02:06.094Z,37.22
2023-04-13T13:09:07.751Z,35.88
2023-04-13T13:16:09.423Z,34.46
2023-04-13T13:23:12.124Z,36.57
2023-04-13T13:30:14.321Z,36.84
2023-04-13T13:37:16.013Z,36.87
2023-04-13T13:44:20.996Z,34.67
2023-04-13T13:51:22.591Z,32.22
2023-04-13T13:58:24.348Z,30.70
2023-04-13T14:05:26.370Z,30.88
2023-04-13T14:12:27.938Z,30.58
2023-04-13T14:19:29.496Z,28.33
2023-04-13T14:26:31.086Z,28.05
2023-04-13T14:33:32.641Z,28.30
2023-04-13T14:40:34.547Z,27.59
2023-04-13T14:47:36.219Z,28.05
2023-04-13T14:54:38.647Z,30.07
2023-04-13T15:01:41.053Z,30.14
2023-04-13T15:08:42.718Z,31.76
2023-04-13T15:15:44.669Z,31.75
2023-04-13T15:22:46.209Z,32.59
2023-04-13T15:29:47.781Z,33.36
2023-04-13T15:36:49.318Z,32.22
2023-04-13T15:43:51.097Z,33.52
2023-04-13T15:50:59.460Z,33.60
2023-04-13T15:58:03.554Z,33.36
2023-04-13T16:05:05.176Z,32.99
2023-04-13T16:12:11.215Z,34.14
2023-04-13T16:19:13.293Z,34.96
2023-04-13T16:26:14.837Z,33.49
2023-04-13T16:33:16.568Z,34.32
2023-04-13T16:40:18.769Z,35.15
2023-04-13T16:47:21.365Z,34.96
2023-04-13T16:54:23.069Z,35.80
2023-04-13T17:01:28.111Z,35.97
2023-04-13T17:08:31.556Z,36.85
2023-04-13T17:15:33.243Z,37.09
2023-04-13T17:22:34.962Z,36.79
2023-04-13T17:29:37.897Z,37.15
2023-04-13T17:36:39.448Z,36.97
2023-04-13T17:43:41.050Z,37.40
2023-04-13T17:50:42.666Z,37.95
2023-04-13T17:57:44.215Z,38.00
2023-04-13T18:04:46.614Z,38.43
2023-04-13T18:11:48.133Z,38.88
2023-04-13T18:18:51.269Z,39.90
2023-04-13T18:25:52.930Z,40.60
2023-04-13T18:32:54.690Z,41.00
2023-04-13T18:39:57.608Z,41.48
2023-04-13T18:46:59.300Z,42.51
2023-04-13T18:54:02.025Z,42.97
2023-04-13T19:01:03.777Z,43.35
2023-04-13T19:08:09.710Z,43.98
2023-04-13T19:15:11.539Z,44.50
2023-04-13T19:22:13.406Z,44.68
2023-04-13T19:29:15.463Z,45.02
2023-04-13T19:36:17.116Z,45.27
2023-04-13T19:43:22.592Z,45.91
2023-04-13T19:50:24.126Z,46.48
2023-04-13T19:57:25.836Z,47.25
2023-04-13T20:04:27.549Z,47.44
2023-04-13T20:11:29.225Z,48.38
2023-04-13T20:18:30.830Z,48.50
2023-04-13T20:25:32.389Z,48.68
2023-04-13T20:32:34.072Z,48.90
2023-04-13T20:39:37.852Z,49.70
2023-04-13T20:46:41.965Z,50.27
2023-04-13T20:53:43.852Z,50.11
2023-04-13T21:00:45.650Z,50.85
2023-04-13T21:07:47.223Z,51.25
2023-04-13T21:14:49.143Z,51.37
2023-04-13T21:21:52.049Z,51.24
2023-04-13T21:28:53.590Z,51.76
2023-04-13T21:35:55.106Z,51.28
2023-04-13T21:42:56.612Z,51.60
2023-04-13T21:49:58.149Z,51.20
2023-04-13T21:56:59.677Z,51.12
2023-04-13T22:04:01.555Z,51.48
2023-04-13T22:11:03.278Z,51.72
2023-04-13T22:18:05.001Z,51.88
2023-04-13T22:25:06.765Z,52.57
2023-04-13T22:32:08.300Z,52.59
2023-04-13T22:39:09.834Z,52.95
2023-04-13T22:46:11.455Z,53.50
2023-04-13T22:53:13.056Z,53.84
2023-04-13T23:00:14.813Z,54.23
2023-04-13T23:07:16.340Z,54.68
2023-04-13T23:14:18.572Z,54.68
2023-04-13T23:21:20.327Z,54.66
2023-04-13T23:28:21.965Z,54.96
2023-04-13T23:35:23.510Z,54.41
2023-04-13T23:42:25.032Z,54.48
2023-04-13T23:49:26.586Z,54.74
2023-04-13T23:56:28.344Z,54.56
